Terminal Aerodrome Forecast
Issued by NWS Cleveland, OH

Home | Current Version | Previous Version | Graphics & Text | Print | Product List | Glossary Off
Versions: 1 2 3 4 5 6 7 8 9 10 11 12 13 14 15 16 17 18 19 20 21 22 23 24 25

000
FTUS41 KCLE 021126
TAFCLE
TAF
KCLE 021126Z 0212/0318 03009KT P6SM OVC005
     FM021700 02008KT P6SM OVC015
     FM030100 04005KT P6SM OVC035
     FM030900 VRB02KT P6SM OVC025
     FM031200 VRB04KT P6SM OVC035=

USA.gov is the U.S. government's official web portal to all federal, state and local government web resources and services.